Time;durP1;ratioP1;P1;durP2;ratioP2;P2;SDS_P1;SDS_P2;PMS_P1;PMS_P2;Temp;Humidity;BMP_temperature;BMP_pressure;BME280_temperature;BME280_humidity;BME280_pressure;Samples;Min_cycle;Max_cycle;Signal;HPM_P1;HPM_P2
2021/08/27 00:02:09;;;;;;;3.77;2.40;;;17.30;70.70;;;;;;5073390;28;20462;-47
2021/08/27 00:04:38;;;;;;;2.33;2.10;;;17.30;70.60;;;;;;5069807;28;20845;-48
2021/08/27 00:07:04;;;;;;;3.03;1.90;;;17.30;70.70;;;;;;5067609;28;20469;-47
2021/08/27 00:09:31;;;;;;;3.80;2.50;;;17.20;71.00;;;;;;5059766;28;20999;-47
2021/08/27 00:11:58;;;;;;;7.90;2.60;;;17.20;70.90;;;;;;5065911;28;20467;-47
2021/08/27 00:14:25;;;;;;;4.90;2.53;;;17.20;71.00;;;;;;5065039;28;20978;-47
2021/08/27 00:16:53;;;;;;;2.77;2.20;;;17.30;71.00;;;;;;5070711;28;20537;-47
2021/08/27 00:19:21;;;;;;;2.63;2.37;;;17.30;71.00;;;;;;5068623;28;20450;-47
2021/08/27 00:21:48;;;;;;;5.13;2.17;;;17.30;71.00;;;;;;5060782;28;20840;-47
2021/08/27 00:24:15;;;;;;;3.90;2.43;;;17.30;71.10;;;;;;5055150;28;20817;-47
2021/08/27 00:26:42;;;;;;;4.00;3.13;;;17.20;71.30;;;;;;5069938;28;20541;-47
2021/08/27 00:29:08;;;;;;;3.73;2.30;;;17.20;71.30;;;;;;5047444;28;20465;-47
2021/08/27 00:31:35;;;;;;;2.90;2.33;;;17.20;71.40;;;;;;5070760;28;20760;-47
2021/08/27 00:34:02;;;;;;;5.30;2.70;;;17.10;71.40;;;;;;5071216;28;20456;-47
2021/08/27 00:36:29;;;;;;;4.27;2.73;;;17.10;71.40;;;;;;5068676;28;20523;-47
2021/08/27 00:38:55;;;;;;;4.57;2.60;;;17.10;71.30;;;;;;5068935;28;20814;-47
2021/08/27 00:41:22;;;;;;;3.13;2.00;;;17.10;71.30;;;;;;5067786;28;20451;-47
2021/08/27 00:43:49;;;;;;;4.00;2.23;;;17.10;71.30;;;;;;5056103;28;20460;-47
2021/08/27 00:46:16;;;;;;;4.07;2.17;;;17.00;71.50;;;;;;5068891;28;20820;-47
2021/08/27 00:48:43;;;;;;;3.93;2.60;;;17.00;71.50;;;;;;5067611;28;20969;-47
2021/08/27 00:51:10;;;;;;;4.60;2.30;;;17.00;71.40;;;;;;5065750;28;20457;-47
2021/08/27 00:53:37;;;;;;;2.70;1.70;;;17.00;71.50;;;;;;5071025;28;20650;-47
2021/08/27 00:56:04;;;;;;;2.03;1.80;;;17.00;71.30;;;;;;5054563;28;20511;-47
2021/08/27 00:58:31;;;;;;;3.53;1.87;;;17.00;71.10;;;;;;5059786;28;20952;-47
2021/08/27 01:00:58;;;;;;;5.33;1.93;;;17.00;71.00;;;;;;5033340;28;20457;-47
2021/08/27 01:03:25;;;;;;;2.13;1.90;;;16.90;71.10;;;;;;5082570;28;20488;-47
2021/08/27 01:06:03;;;;;;;3.73;2.30;;;16.90;71.00;;;;;;5071841;28;20905;-47
2021/08/27 01:08:39;;;;;;;3.13;2.13;;;16.90;70.90;;;;;;5050321;28;20461;-47
2021/08/27 01:11:17;;;;;;;3.10;2.00;;;16.90;70.90;;;;;;5065386;28;20468;-47
2021/08/27 01:13:52;;;;;;;5.00;1.70;;;16.90;70.30;;;;;;5066143;28;20468;-47
2021/08/27 01:16:23;;;;;;;2.37;1.63;;;16.90;70.50;;;;;;5056346;28;20489;-47
2021/08/27 01:19:09;;;;;;;2.00;1.60;;;16.80;70.40;;;;;;5055507;28;20453;-47
2021/08/27 01:21:48;;;;;;;2.40;1.57;;;16.80;70.50;;;;;;5070861;28;20841;-47
2021/08/27 01:24:17;;;;;;;4.80;1.43;;;16.80;70.20;;;;;;5072646;28;20969;-47
2021/08/27 01:26:48;;;;;;;4.63;1.57;;;16.70;70.10;;;;;;5074710;28;20448;-47
2021/08/27 01:29:24;;;;;;;2.10;1.10;;;16.70;70.40;;;;;;5058943;28;20460;-47
2021/08/27 01:32:01;;;;;;;2.70;1.37;;;16.60;70.50;;;;;;5067955;28;20472;-47
2021/08/27 01:34:35;;;;;;;4.67;1.37;;;16.60;70.90;;;;;;5064541;28;20860;-47
2021/08/27 01:37:06;;;;;;;3.07;1.40;;;16.60;70.80;;;;;;5063258;28;20449;-47
2021/08/27 01:39:42;;;;;;;3.13;1.57;;;16.60;70.90;;;;;;5052176;28;20463;-47
2021/08/27 01:42:12;;;;;;;2.73;1.93;;;16.60;71.00;;;;;;5056380;28;20461;-47
2021/08/27 01:44:39;;;;;;;3.57;1.67;;;16.60;71.30;;;;;;5054554;28;20466;-47
2021/08/27 01:47:08;;;;;;;2.13;1.63;;;16.60;71.40;;;;;;5062801;28;20456;-47
2021/08/27 01:49:34;;;;;;;2.30;1.47;;;16.50;71.50;;;;;;5066372;28;20478;-47
2021/08/27 01:52:07;;;;;;;3.50;1.90;;;16.50;71.60;;;;;;5067395;28;20491;-47
2021/08/27 01:54:35;;;;;;;2.73;2.00;;;16.50;71.70;;;;;;5047813;28;20492;-47
2021/08/27 01:57:02;;;;;;;1.93;1.50;;;16.50;71.70;;;;;;5061482;28;20472;-47
2021/08/27 01:59:36;;;;;;;2.00;1.90;;;16.50;71.70;;;;;;5046462;28;20733;-47
2021/08/27 02:02:04;;;;;;;4.93;2.03;;;16.50;71.80;;;;;;5055296;28;20449;-44
2021/08/27 02:04:37;;;;;;;3.43;1.67;;;16.50;71.70;;;;;;5065688;28;20461;-44
2021/08/27 02:07:05;;;;;;;1.70;1.60;;;16.40;71.70;;;;;;5066222;28;20955;-44
2021/08/27 02:09:33;;;;;;;1.97;1.83;;;16.40;71.70;;;;;;5058719;28;20458;-44
2021/08/27 02:12:01;;;;;;;1.50;1.40;;;16.40;71.70;;;;;;5064154;28;20449;-44
2021/08/27 02:14:27;;;;;;;2.33;1.80;;;16.40;71.80;;;;;;5065062;28;20450;-44
2021/08/27 02:16:54;;;;;;;3.27;1.73;;;16.40;71.90;;;;;;5060763;28;20459;-43
2021/08/27 02:19:21;;;;;;;2.93;2.03;;;16.30;72.00;;;;;;5053715;28;20461;-43
2021/08/27 02:21:51;;;;;;;2.70;2.00;;;16.30;72.00;;;;;;5039306;28;20827;-43
2021/08/27 02:24:25;;;;;;;3.57;1.50;;;16.30;72.10;;;;;;5064648;28;20461;-43
2021/08/27 02:26:55;;;;;;;3.20;1.90;;;16.20;72.10;;;;;;5051486;28;20453;-43
2021/08/27 02:29:24;;;;;;;2.17;1.53;;;16.20;72.10;;;;;;5072504;28;20461;-43
2021/08/27 02:31:59;;;;;;;2.57;1.73;;;16.20;72.20;;;;;;5066965;28;20469;-43
2021/08/27 02:34:27;;;;;;;2.47;1.77;;;16.20;72.20;;;;;;5058252;28;20476;-43
2021/08/27 02:36:56;;;;;;;2.43;1.60;;;16.30;71.90;;;;;;5034627;28;20469;-43
2021/08/27 02:39:26;;;;;;;4.53;1.60;;;16.20;71.70;;;;;;5065031;28;20636;-43
2021/08/27 02:41:53;;;;;;;4.60;1.83;;;16.20;71.50;;;;;;5059361;28;20459;-43
2021/08/27 02:44:20;;;;;;;1.90;1.67;;;16.20;71.50;;;;;;5045877;28;20460;-43
2021/08/27 02:46:47;;;;;;;1.73;1.57;;;16.10;71.40;;;;;;5069537;28;20465;-43
2021/08/27 02:49:14;;;;;;;3.07;1.97;;;16.10;71.70;;;;;;5068762;28;20448;-43
2021/08/27 02:51:46;;;;;;;3.50;2.17;;;16.00;71.70;;;;;;5053522;28;20873;-43
2021/08/27 02:54:18;;;;;;;6.47;2.40;;;16.00;71.80;;;;;;5070033;28;20453;-43
2021/08/27 02:56:46;;;;;;;3.23;1.90;;;15.90;72.00;;;;;;5073051;28;20511;-43
2021/08/27 02:59:17;;;;;;;2.13;1.77;;;15.90;72.10;;;;;;5065581;28;20471;-43
2021/08/27 03:01:52;;;;;;;1.77;1.63;;;15.80;72.30;;;;;;5028483;28;21051;-43
2021/08/27 03:04:31;;;;;;;4.50;1.80;;;15.80;72.20;;;;;;5057536;28;20515;-43
2021/08/27 03:07:07;;;;;;;3.27;2.40;;;15.70;72.30;;;;;;5068372;28;20449;-43
2021/08/27 03:09:52;;;;;;;2.07;1.87;;;15.70;72.50;;;;;;5061325;28;20500;-43
2021/08/27 03:12:26;;;;;;;7.40;2.40;;;15.70;72.70;;;;;;5066500;28;20441;-43
2021/08/27 03:14:55;;;;;;;2.97;2.00;;;15.60;72.70;;;;;;5059048;28;20886;-43
2021/08/27 03:17:26;;;;;;;2.10;1.90;;;15.60;72.90;;;;;;5065784;28;20908;-43
2021/08/27 03:20:03;;;;;;;1.90;1.70;;;15.50;73.00;;;;;;5070215;28;20458;-43
2021/08/27 03:22:38;;;;;;;3.40;2.00;;;15.50;73.00;;;;;;5057964;28;20454;-43
2021/08/27 03:25:09;;;;;;;3.20;1.80;;;15.50;73.00;;;;;;5067657;28;20465;-43
2021/08/27 03:27:47;;;;;;;2.40;2.00;;;15.40;73.10;;;;;;5068474;28;20460;-43
2021/08/27 03:30:21;;;;;;;9.40;2.30;;;15.40;73.50;;;;;;5052128;28;20469;-43
2021/08/27 03:32:51;;;;;;;5.27;2.60;;;15.40;73.60;;;;;;5033882;28;20464;-43
2021/08/27 03:35:20;;;;;;;3.47;2.40;;;15.40;73.70;;;;;;5058649;28;20489;-43
2021/08/27 03:37:50;;;;;;;3.47;2.50;;;15.40;73.80;;;;;;5067329;28;20997;-43
2021/08/27 03:40:19;;;;;;;2.80;2.40;;;15.40;73.70;;;;;;5033341;28;20459;-43
2021/08/27 03:42:46;;;;;;;3.00;2.10;;;15.40;73.80;;;;;;5060856;28;20820;-43
2021/08/27 03:45:17;;;;;;;2.07;1.93;;;15.40;73.90;;;;;;5071558;28;20538;-43
2021/08/27 03:47:46;;;;;;;2.03;1.67;;;15.40;73.90;;;;;;5062914;28;20458;-43
2021/08/27 03:50:13;;;;;;;2.80;2.57;;;15.30;73.90;;;;;;5057400;28;20810;-43
2021/08/27 03:52:42;;;;;;;5.70;2.20;;;15.30;74.10;;;;;;5058387;28;20468;-43
2021/08/27 03:55:12;;;;;;;3.93;2.30;;;15.30;74.20;;;;;;5064897;28;20496;-44
2021/08/27 03:57:40;;;;;;;5.27;2.37;;;15.30;74.10;;;;;;5068982;28;20465;-43
2021/08/27 04:00:07;;;;;;;2.33;2.13;;;15.30;74.20;;;;;;5066983;28;20454;-43
2021/08/27 04:02:35;;;;;;;3.03;1.80;;;15.30;74.10;;;;;;5059941;28;20549;-43
2021/08/27 04:05:12;;;;;;;4.30;2.17;;;15.20;74.00;;;;;;5054001;28;20479;-43
2021/08/27 04:07:41;;;;;;;4.80;2.30;;;15.20;73.80;;;;;;5070559;28;20453;-43
2021/08/27 04:10:09;;;;;;;3.20;2.10;;;15.20;73.80;;;;;;5069738;28;20458;-43
2021/08/27 04:12:40;;;;;;;4.27;2.60;;;15.20;74.00;;;;;;5065244;28;20465;-43
2021/08/27 04:15:09;;;;;;;6.70;3.00;;;15.10;74.00;;;;;;5060285;28;21027;-44
2021/08/27 04:17:36;;;;;;;5.70;3.30;;;15.10;73.80;;;;;;5068706;28;20849;-43
2021/08/27 04:20:07;;;;;;;3.37;2.13;;;15.00;73.80;;;;;;5069021;28;20458;-43
2021/08/27 04:22:34;;;;;;;5.10;3.53;;;15.00;73.80;;;;;;5069444;28;20463;-43
2021/08/27 04:25:01;;;;;;;2.70;1.90;;;15.00;74.00;;;;;;5062318;28;20546;-43
2021/08/27 04:27:28;;;;;;;5.90;2.50;;;14.90;74.10;;;;;;5061029;28;20454;-43
2021/08/27 04:29:55;;;;;;;2.40;2.20;;;14.90;74.20;;;;;;5049657;28;20451;-43
2021/08/27 04:32:22;;;;;;;6.20;2.90;;;14.90;74.40;;;;;;5060780;28;20460;-43
2021/08/27 04:34:49;;;;;;;2.17;2.00;;;14.90;74.60;;;;;;5068018;28;20545;-44
2021/08/27 04:37:16;;;;;;;4.03;3.33;;;14.80;74.70;;;;;;5054785;28;20484;-43
2021/08/27 04:39:43;;;;;;;4.87;2.97;;;14.80;75.00;;;;;;5047913;28;20461;-43
2021/08/27 04:42:10;;;;;;;4.63;2.63;;;14.90;75.40;;;;;;5059245;28;20457;-43
2021/08/27 04:44:37;;;;;;;3.23;2.80;;;14.90;75.40;;;;;;5060423;28;20540;-43
2021/08/27 04:47:03;;;;;;;7.10;2.27;;;14.80;75.50;;;;;;5065542;28;20465;-44
2021/08/27 04:49:30;;;;;;;2.77;2.33;;;14.90;75.70;;;;;;5053640;28;20463;-44
2021/08/27 04:52:00;;;;;;;5.10;2.80;;;14.90;75.80;;;;;;5072017;28;20472;-43
2021/08/27 04:54:26;;;;;;;3.97;2.73;;;14.90;75.80;;;;;;5083851;28;20454;-43
2021/08/27 04:56:53;;;;;;;4.57;3.63;;;14.90;75.90;;;;;;5077836;28;20484;-43
2021/08/27 04:59:20;;;;;;;4.67;3.43;;;14.90;76.00;;;;;;5073980;28;20485;-44
2021/08/27 05:01:47;;;;;;;5.27;4.00;;;15.00;75.90;;;;;;5053632;28;20494;-44
2021/08/27 05:04:14;;;;;;;6.77;5.10;;;15.00;76.00;;;;;;5072113;28;20485;-43
2021/08/27 05:06:41;;;;;;;4.07;3.37;;;15.00;76.00;;;;;;5064334;28;21282;-43
2021/08/27 05:09:08;;;;;;;4.70;3.90;;;15.10;75.90;;;;;;5057560;28;20463;-43
2021/08/27 05:11:35;;;;;;;5.63;3.73;;;15.10;75.70;;;;;;5033825;28;20458;-43
2021/08/27 05:14:01;;;;;;;5.40;3.17;;;15.10;75.80;;;;;;5063620;28;20470;-43
2021/08/27 05:16:28;;;;;;;5.23;3.40;;;15.10;75.80;;;;;;5038364;28;20998;-43
2021/08/27 05:18:55;;;;;;;4.03;3.63;;;15.20;75.80;;;;;;5054144;28;20821;-43
2021/08/27 05:21:22;;;;;;;4.43;3.17;;;15.30;75.50;;;;;;5063792;28;21027;-43
2021/08/27 05:23:53;;;;;;;5.07;3.70;;;15.30;75.40;;;;;;5052891;28;20459;-43
2021/08/27 05:26:20;;;;;;;5.20;3.50;;;15.30;75.30;;;;;;5058624;28;20805;-43
2021/08/27 05:28:48;;;;;;;4.30;3.10;;;15.30;75.40;;;;;;5067148;28;20466;-43
2021/08/27 05:31:15;;;;;;;6.03;3.70;;;15.30;75.40;;;;;;5046611;28;20477;-43
2021/08/27 05:33:43;;;;;;;4.30;3.90;;;15.30;75.30;;;;;;5049379;28;20511;-44
2021/08/27 05:36:09;;;;;;;5.37;3.20;;;15.30;75.30;;;;;;5071326;28;20496;-43
2021/08/27 05:38:36;;;;;;;3.63;3.33;;;15.40;75.00;;;;;;5065898;28;20954;-43
2021/08/27 05:41:04;;;;;;;8.23;3.73;;;15.40;74.90;;;;;;5051266;28;20467;-43
2021/08/27 05:43:31;;;;;;;6.97;4.23;;;15.40;75.00;;;;;;5043566;28;20464;-43
2021/08/27 05:45:58;;;;;;;5.10;2.80;;;15.40;75.10;;;;;;5066615;28;20458;-43
2021/08/27 05:48:24;;;;;;;4.47;3.13;;;15.40;74.70;;;;;;5069259;28;21006;-43
2021/08/27 05:50:52;;;;;;;6.57;3.93;;;15.40;74.70;;;;;;5062022;28;20464;-43
2021/08/27 05:53:18;;;;;;;4.70;3.50;;;15.40;74.80;;;;;;5070854;28;20462;-43
2021/08/27 05:55:45;;;;;;;4.33;3.30;;;15.40;74.90;;;;;;5057800;28;20493;-43
2021/08/27 05:58:12;;;;;;;11.33;3.90;;;15.40;74.90;;;;;;5058217;28;20463;-43
2021/08/27 06:00:40;;;;;;;7.77;3.57;;;15.40;75.00;;;;;;5064526;28;20458;-43
2021/08/27 06:03:08;;;;;;;5.87;2.93;;;15.50;74.90;;;;;;5048457;28;21004;-43
2021/08/27 06:05:35;;;;;;;11.27;4.13;;;15.50;74.90;;;;;;5066393;28;20951;-43
2021/08/27 06:08:01;;;;;;;6.67;3.00;;;15.50;74.90;;;;;;5049211;28;20454;-43
2021/08/27 06:10:28;;;;;;;5.90;3.07;;;15.50;74.90;;;;;;5057786;28;20546;-43
2021/08/27 06:12:55;;;;;;;4.27;3.47;;;15.70;74.60;;;;;;5069951;28;20448;-43
2021/08/27 06:15:22;;;;;;;5.73;3.27;;;15.70;74.10;;;;;;5066971;28;20442;-43
2021/08/27 06:17:48;;;;;;;6.77;3.20;;;15.70;74.20;;;;;;5067069;28;20828;-43
2021/08/27 06:20:15;;;;;;;8.13;3.83;;;15.70;74.30;;;;;;5080732;28;20450;-44
2021/08/27 06:22:42;;;;;;;5.57;3.93;;;15.80;73.90;;;;;;5070295;28;20832;-43
2021/08/27 06:25:09;;;;;;;4.10;3.53;;;15.80;73.70;;;;;;5061444;28;20499;-43
2021/08/27 06:27:36;;;;;;;4.73;3.30;;;15.80;74.00;;;;;;5055601;28;20454;-43
2021/08/27 06:30:05;;;;;;;6.07;3.30;;;15.80;74.10;;;;;;5069785;28;20450;-43
2021/08/27 06:32:32;;;;;;;3.57;3.27;;;15.90;74.10;;;;;;5069052;28;20544;-43
2021/08/27 06:35:03;;;;;;;6.00;4.70;;;15.90;73.80;;;;;;5067876;28;20458;-43
2021/08/27 06:40:15;;;;;;;4.87;4.40;;;16.00;74.00;;;;;;5068663;28;20454;-43
2021/08/27 06:42:42;;;;;;;9.17;4.17;;;16.00;74.10;;;;;;5072918;28;20457;-43
2021/08/27 06:45:10;;;;;;;6.40;3.43;;;16.00;74.10;;;;;;5070608;28;20461;-43
2021/08/27 06:47:36;;;;;;;5.97;3.87;;;16.10;73.90;;;;;;5070096;28;20496;-43
2021/08/27 06:50:04;;;;;;;3.43;3.13;;;16.10;74.00;;;;;;5071422;28;20446;-43
2021/08/27 06:52:31;;;;;;;4.47;3.30;;;16.10;73.50;;;;;;5066350;28;20933;-43
2021/08/27 06:54:59;;;;;;;7.57;3.57;;;16.10;73.80;;;;;;5074303;28;20457;-43
2021/08/27 06:57:25;;;;;;;5.83;3.80;;;16.10;73.90;;;;;;5081403;28;20482;-43
2021/08/27 06:59:53;;;;;;;5.60;4.00;;;16.10;74.10;;;;;;5066040;28;20628;-43
2021/08/27 07:02:20;;;;;;;20.57;4.73;;;16.10;73.90;;;;;;5056876;28;20458;-43
2021/08/27 07:04:47;;;;;;;5.23;3.53;;;16.20;73.70;;;;;;5053149;28;20462;-43
2021/08/27 07:07:17;;;;;;;7.20;3.80;;;16.30;73.70;;;;;;5061613;28;20460;-43
2021/08/27 07:09:44;;;;;;;7.27;3.40;;;16.30;73.30;;;;;;5067462;28;20442;-43
2021/08/27 07:12:13;;;;;;;4.67;3.80;;;16.40;73.30;;;;;;5062847;28;20896;-43
2021/08/27 07:14:40;;;;;;;6.27;4.30;;;16.40;73.10;;;;;;5060919;28;20453;-44
2021/08/27 07:17:07;;;;;;;8.73;4.20;;;16.50;72.90;;;;;;5062060;28;21185;-43
2021/08/27 07:19:34;;;;;;;7.60;4.47;;;16.50;72.90;;;;;;5071931;28;20464;-43
2021/08/27 07:22:00;;;;;;;5.47;4.20;;;16.50;72.60;;;;;;5063656;28;20457;-43
2021/08/27 07:24:27;;;;;;;6.83;4.33;;;16.60;72.80;;;;;;5069577;28;20500;-43
2021/08/27 07:26:57;;;;;;;8.57;4.40;;;16.60;73.00;;;;;;5068407;28;20437;-44
2021/08/27 07:29:23;;;;;;;5.10;3.93;;;16.60;73.10;;;;;;5069597;28;20485;-43
2021/08/27 07:31:52;;;;;;;5.23;4.20;;;16.70;73.20;;;;;;5065605;28;20459;-44
2021/08/27 07:34:19;;;;;;;6.37;5.20;;;16.70;73.00;;;;;;5074399;28;20457;-43
2021/08/27 07:36:46;;;;;;;9.10;5.30;;;16.90;72.20;;;;;;5067144;28;20473;-43
2021/08/27 07:39:17;;;;;;;8.13;4.70;;;16.90;71.60;;;;;;5055354;28;20454;-44
2021/08/27 07:41:44;;;;;;;6.30;5.37;;;17.00;71.40;;;;;;5068968;28;20482;-44
2021/08/27 07:44:11;;;;;;;7.10;5.33;;;17.10;70.70;;;;;;5068483;28;20453;-44
2021/08/27 07:46:39;;;;;;;5.60;5.10;;;17.10;70.60;;;;;;5076661;28;20913;-44
2021/08/27 07:49:05;;;;;;;5.30;4.80;;;17.20;70.60;;;;;;5075364;28;20471;-44
2021/08/27 07:51:32;;;;;;;5.63;4.63;;;17.20;70.40;;;;;;5057749;28;20464;-44
2021/08/27 07:53:59;;;;;;;7.40;4.60;;;17.20;70.20;;;;;;5052635;28;20470;-44
2021/08/27 07:56:26;;;;;;;5.23;4.73;;;17.30;69.90;;;;;;5073733;28;20491;-44
2021/08/27 07:58:52;;;;;;;6.03;4.40;;;17.30;69.80;;;;;;5063682;28;20460;-43
2021/08/27 08:01:19;;;;;;;5.17;4.50;;;17.30;69.60;;;;;;5067073;28;20460;-43
2021/08/27 08:03:47;;;;;;;5.20;4.53;;;17.30;69.10;;;;;;5069490;28;20801;-43
2021/08/27 08:06:14;;;;;;;5.10;3.80;;;17.30;69.20;;;;;;5071233;28;20468;-43
2021/08/27 08:08:40;;;;;;;5.90;3.60;;;17.30;69.20;;;;;;5062302;28;20452;-43
2021/08/27 08:11:07;;;;;;;5.47;4.40;;;17.40;68.20;;;;;;5073347;28;20625;-43
2021/08/27 08:13:34;;;;;;;4.90;4.27;;;17.40;68.20;;;;;;5078606;28;20834;-43
2021/08/27 08:16:01;;;;;;;9.43;4.70;;;17.40;68.50;;;;;;5062635;28;20462;-43
2021/08/27 08:18:30;;;;;;;5.27;4.47;;;17.40;68.30;;;;;;5064276;28;20452;-44
2021/08/27 08:20:58;;;;;;;5.40;3.93;;;17.40;68.50;;;;;;5070313;28;20862;-43
2021/08/27 08:23:25;;;;;;;6.50;4.60;;;17.50;68.50;;;;;;5068562;28;20455;-43
2021/08/27 08:25:52;;;;;;;4.80;4.40;;;17.60;67.50;;;;;;5062619;28;20456;-43
2021/08/27 08:28:19;;;;;;;5.97;4.27;;;17.60;66.60;;;;;;5064919;28;20453;-43
2021/08/27 08:30:46;;;;;;;5.60;4.37;;;17.60;66.60;;;;;;5067802;28;20489;-43
2021/08/27 08:33:13;;;;;;;6.40;4.70;;;17.70;66.30;;;;;;5062335;28;20504;-43
2021/08/27 08:35:39;;;;;;;5.60;3.73;;;17.60;66.60;;;;;;5069923;28;20446;-44
2021/08/27 08:38:06;;;;;;;7.60;4.63;;;17.70;66.80;;;;;;5071351;28;20556;-43
2021/08/27 08:40:42;;;;;;;5.37;4.23;;;17.70;66.90;;;;;;5052273;28;20806;-43
2021/08/27 08:43:10;;;;;;;5.43;4.07;;;17.70;67.00;;;;;;5067164;28;20737;-43
2021/08/27 08:45:50;;;;;;;6.03;4.53;;;17.80;66.80;;;;;;5062345;28;20832;-43
2021/08/27 08:48:21;;;;;;;5.00;4.50;;;17.90;66.20;;;;;;5057442;28;20461;-43
2021/08/27 08:50:51;;;;;;;7.67;5.23;;;18.00;66.10;;;;;;5072297;28;20519;-43
2021/08/27 08:53:22;;;;;;;4.93;4.53;;;18.10;65.90;;;;;;5069937;28;20450;-43
2021/08/27 08:55:52;;;;;;;6.57;4.27;;;18.30;65.60;;;;;;5066780;28;20458;-43
2021/08/27 08:58:22;;;;;;;7.10;4.63;;;18.50;65.40;;;;;;5068446;28;20489;-43
2021/08/27 09:00:48;;;;;;;5.47;4.53;;;18.70;65.00;;;;;;5057557;28;20468;-43
2021/08/27 09:03:15;;;;;;;8.03;4.60;;;19.10;63.90;;;;;;5066696;28;20452;-43
2021/08/27 09:05:43;;;;;;;7.93;4.53;;;19.50;62.50;;;;;;5054163;28;20544;-43
2021/08/27 09:08:10;;;;;;;7.03;5.00;;;20.00;60.70;;;;;;5070790;28;20459;-43
2021/08/27 09:10:41;;;;;;;5.80;5.00;;;20.40;59.80;;;;;;5070656;28;20465;-44
2021/08/27 09:13:09;;;;;;;6.97;4.50;;;20.50;59.50;;;;;;5059426;28;20978;-44
2021/08/27 09:15:36;;;;;;;4.63;4.23;;;20.70;59.30;;;;;;5051855;28;20460;-44
2021/08/27 09:18:10;;;;;;;5.60;4.73;;;20.80;58.50;;;;;;5077475;28;20565;-43
2021/08/27 09:20:37;;;;;;;5.60;4.07;;;20.70;58.40;;;;;;5057827;28;20510;-44
2021/08/27 09:23:06;;;;;;;9.63;4.00;;;20.50;58.50;;;;;;5051694;28;20461;-43
2021/08/27 09:25:39;;;;;;;4.97;4.47;;;20.30;58.90;;;;;;5053722;28;20456;-44
2021/08/27 09:28:12;;;;;;;5.80;4.40;;;20.20;59.40;;;;;;5069739;28;20693;-43
2021/08/27 09:30:54;;;;;;;5.13;4.00;;;20.10;60.10;;;;;;5062604;28;20458;-43
2021/08/27 09:33:31;;;;;;;7.37;4.47;;;20.00;60.30;;;;;;5067784;28;20442;-43
2021/08/27 09:36:10;;;;;;;6.30;5.07;;;19.70;60.60;;;;;;5071055;28;20468;-43
2021/08/27 09:38:39;;;;;;;5.63;4.03;;;19.60;61.20;;;;;;5074308;28;20532;-44
2021/08/27 09:41:11;;;;;;;5.43;4.50;;;19.40;61.10;;;;;;5047786;28;20788;-44
2021/08/27 09:43:50;;;;;;;5.23;4.73;;;19.20;61.50;;;;;;5069105;28;20438;-44
2021/08/27 09:46:37;;;;;;;5.30;4.30;;;19.10;61.90;;;;;;5069445;28;20476;-44
2021/08/27 09:49:24;;;;;;;7.50;4.63;;;18.90;62.60;;;;;;5083549;28;20479;-44
2021/08/27 09:51:51;;;;;;;5.80;5.20;;;18.80;63.10;;;;;;5079920;28;20461;-44
2021/08/27 09:54:35;;;;;;;5.43;4.73;;;18.70;63.80;;;;;;5066977;28;20449;-44
2021/08/27 09:57:10;;;;;;;7.17;5.30;;;18.60;64.00;;;;;;5064124;28;20487;-44
2021/08/27 09:59:49;;;;;;;6.83;5.47;;;18.60;64.20;;;;;;5066287;28;21013;-44
2021/08/27 10:02:17;;;;;;;6.23;5.13;;;18.60;64.70;;;;;;5058757;28;20854;-44
2021/08/27 10:04:58;;;;;;;7.70;5.67;;;18.80;65.00;;;;;;5068307;28;20450;-44
2021/08/27 10:07:30;;;;;;;8.90;6.37;;;19.20;63.30;;;;;;5067164;28;20978;-44
2021/08/27 10:09:58;;;;;;;6.80;6.10;;;19.40;62.60;;;;;;5064569;28;20449;-44
2021/08/27 10:12:27;;;;;;;8.13;6.10;;;19.50;62.00;;;;;;5069424;28;20458;-44
2021/08/27 10:14:55;;;;;;;7.70;5.10;;;19.50;61.10;;;;;;5067725;28;20466;-44
2021/08/27 10:17:21;;;;;;;9.63;6.97;;;19.40;61.20;;;;;;5066415;28;20492;-44
2021/08/27 10:19:48;;;;;;;6.83;5.53;;;19.20;61.60;;;;;;5060792;28;20904;-44
2021/08/27 10:22:18;;;;;;;8.67;6.27;;;19.10;62.00;;;;;;5062284;28;20453;-44
2021/08/27 10:24:46;;;;;;;8.33;6.00;;;19.10;62.00;;;;;;5054182;28;20473;-44
2021/08/27 10:27:14;;;;;;;8.30;5.90;;;19.00;62.10;;;;;;5063571;28;20454;-44
2021/08/27 10:29:51;;;;;;;7.93;6.07;;;18.90;62.70;;;;;;5067204;28;20458;-44
2021/08/27 10:32:39;;;;;;;7.80;5.97;;;18.80;63.50;;;;;;5055592;28;20462;-44
2021/08/27 10:35:30;;;;;;;7.13;6.10;;;18.70;63.60;;;;;;5067248;28;20464;-44
2021/08/27 10:37:57;;;;;;;8.10;7.27;;;18.70;63.80;;;;;;5068562;28;20506;-44
2021/08/27 10:40:28;;;;;;;10.00;7.70;;;18.70;63.50;;;;;;5067793;28;20462;-44
2021/08/27 10:42:55;;;;;;;10.80;7.80;;;18.70;64.10;;;;;;5068019;28;20441;-44
2021/08/27 10:45:33;;;;;;;9.20;7.20;;;18.70;64.40;;;;;;5061135;28;20537;-44
2021/08/27 10:48:09;;;;;;;9.07;7.13;;;18.80;64.50;;;;;;5056254;28;20539;-44
2021/08/27 10:50:38;;;;;;;10.03;7.90;;;18.90;64.40;;;;;;5066645;28;20639;-44
2021/08/27 10:53:23;;;;;;;9.73;6.47;;;19.10;62.90;;;;;;5051875;28;20449;-44
2021/08/27 10:55:51;;;;;;;8.87;6.87;;;19.20;63.30;;;;;;5064556;28;20465;-44
2021/08/27 10:58:23;;;;;;;9.43;7.07;;;19.30;63.10;;;;;;5048511;28;20498;-44
2021/08/27 11:00:52;;;;;;;6.70;5.60;;;19.40;62.60;;;;;;5058457;28;20454;-44
2021/08/27 11:03:43;;;;;;;11.03;6.50;;;19.50;62.40;;;;;;5046828;28;20495;-44
2021/08/27 11:06:15;;;;;;;7.13;5.30;;;19.60;62.40;;;;;;5065332;28;20468;-44
2021/08/27 11:08:42;;;;;;;8.63;6.43;;;19.60;62.00;;;;;;5061525;28;20459;-44
2021/08/27 11:11:18;;;;;;;6.17;4.80;;;19.70;61.40;;;;;;5064734;28;20741;-44
2021/08/27 11:13:45;;;;;;;5.70;5.10;;;19.70;61.10;;;;;;5065760;28;20564;-44
2021/08/27 11:16:21;;;;;;;6.63;5.13;;;19.70;61.20;;;;;;5066979;28;20556;-44
2021/08/27 11:18:50;;;;;;;6.37;4.77;;;19.70;61.70;;;;;;5065520;28;20881;-44
2021/08/27 11:21:35;;;;;;;5.80;5.20;;;19.80;61.40;;;;;;5066797;28;20468;-44
2021/08/27 11:24:19;;;;;;;6.17;5.37;;;19.80;61.50;;;;;;5066410;28;20463;-44
2021/08/27 11:26:48;;;;;;;5.43;4.83;;;19.80;61.30;;;;;;5056645;28;20446;-44
2021/08/27 11:29:32;;;;;;;6.63;5.23;;;19.70;61.40;;;;;;5070921;28;20437;-44
2021/08/27 11:32:08;;;;;;;5.93;5.33;;;19.70;61.60;;;;;;5065038;28;20502;-44
2021/08/27 11:34:58;;;;;;;7.73;5.57;;;19.60;62.20;;;;;;5052183;28;20465;-44
2021/08/27 11:37:36;;;;;;;6.53;5.73;;;19.70;62.40;;;;;;5072159;28;20577;-44
2021/08/27 11:40:09;;;;;;;8.00;4.83;;;19.70;63.30;;;;;;5065533;28;20683;-44
2021/08/27 11:42:42;;;;;;;6.30;5.70;;;19.70;62.40;;;;;;5067922;28;20449;-44
2021/08/27 11:45:14;;;;;;;5.07;4.63;;;19.70;61.90;;;;;;5050127;28;20443;-44
2021/08/27 11:47:46;;;;;;;6.27;5.10;;;19.60;62.10;;;;;;5067709;28;20469;-44
2021/08/27 11:50:50;;;;;;;7.20;5.70;;;19.60;61.80;;;;;;5063276;28;20459;-44
2021/08/27 11:53:17;;;;;;;5.87;4.63;;;19.60;62.20;;;;;;5069075;28;20463;-44
2021/08/27 11:55:46;;;;;;;9.43;7.33;;;19.60;62.00;;;;;;5066369;28;20467;-44
2021/08/27 11:58:13;;;;;;;8.70;6.53;;;19.60;61.80;;;;;;5070247;28;20486;-44
2021/08/27 12:00:42;;;;;;;21.47;7.23;;;19.50;61.50;;;;;;5053420;28;20541;-44
2021/08/27 12:03:11;;;;;;;8.43;6.50;;;19.50;62.00;;;;;;5069763;28;21078;-44
2021/08/27 12:05:42;;;;;;;7.03;5.87;;;19.60;62.30;;;;;;5054615;28;20946;-44
2021/08/27 12:08:11;;;;;;;8.07;5.20;;;19.60;61.60;;;;;;5069107;28;20488;-44
2021/08/27 12:10:39;;;;;;;6.17;5.57;;;19.70;61.00;;;;;;5068995;28;20464;-44
2021/08/27 12:13:10;;;;;;;8.10;5.43;;;19.80;60.80;;;;;;5073569;28;20441;-44
2021/08/27 12:15:40;;;;;;;5.90;5.30;;;19.90;60.30;;;;;;5063005;28;20561;-44
2021/08/27 12:18:12;;;;;;;7.70;6.47;;;19.90;60.40;;;;;;5055698;28;20518;-44
2021/08/27 12:20:45;;;;;;;5.17;4.77;;;20.00;60.10;;;;;;5070923;28;20487;-44
2021/08/27 12:23:16;;;;;;;7.13;6.07;;;20.10;59.80;;;;;;5059813;28;20452;-43
2021/08/27 12:26:00;;;;;;;6.73;5.87;;;20.10;59.80;;;;;;5071660;28;20961;-44
2021/08/27 12:28:33;;;;;;;6.73;5.40;;;20.20;60.20;;;;;;5071188;28;20445;-44
2021/08/27 12:31:00;;;;;;;6.40;5.90;;;20.20;60.20;;;;;;5063894;28;20468;-44
2021/08/27 12:33:28;;;;;;;6.37;5.77;;;20.20;60.50;;;;;;5069628;28;20466;-44
2021/08/27 12:35:55;;;;;;;5.43;4.93;;;20.10;60.40;;;;;;5068004;28;20461;-44
2021/08/27 12:38:23;;;;;;;7.80;5.80;;;20.00;60.60;;;;;;5057767;28;20518;-44
2021/08/27 12:40:49;;;;;;;7.20;6.20;;;20.00;60.80;;;;;;5053638;28;20542;-45
2021/08/27 12:43:23;;;;;;;6.57;5.80;;;20.00;61.40;;;;;;5064423;28;20540;-44
2021/08/27 12:45:51;;;;;;;6.50;5.90;;;20.00;61.30;;;;;;5052818;28;20507;-44
2021/08/27 12:48:26;;;;;;;6.23;4.80;;;20.10;60.70;;;;;;5068641;28;20449;-44
2021/08/27 12:50:55;;;;;;;5.20;4.80;;;20.20;60.40;;;;;;5051623;28;20508;-44
2021/08/27 12:53:31;;;;;;;4.30;3.90;;;20.10;59.90;;;;;;5067770;28;20971;-44
2021/08/27 12:56:17;;;;;;;5.10;4.17;;;20.10;60.00;;;;;;5036142;28;20446;-44
2021/08/27 12:58:49;;;;;;;2.83;2.63;;;20.00;60.10;;;;;;5068987;28;20588;-44
2021/08/27 13:01:24;;;;;;;3.20;2.90;;;20.00;60.60;;;;;;5066697;28;20954;-44
2021/08/27 13:03:52;;;;;;;3.67;2.90;;;19.90;60.20;;;;;;5060058;28;20533;-44